createdAt,value
2022-08-18T00:02:11.485Z,48.93
2022-08-18T00:04:49.749Z,48.94
2022-08-18T00:07:25.870Z,49.09
2022-08-18T00:10:01.300Z,49.01
2022-08-18T00:12:43.234Z,48.86
2022-08-18T00:15:16.539Z,49.20
2022-08-18T00:17:48.529Z,49.10
2022-08-18T00:20:23.970Z,48.96
2022-08-18T00:22:58.635Z,48.63
2022-08-18T00:25:30.221Z,48.84
2022-08-18T00:28:02.225Z,48.76
2022-08-18T00:30:34.457Z,49.30
2022-08-18T00:33:09.082Z,49.26
2022-08-18T00:35:40.864Z,49.58
2022-08-18T00:38:24.786Z,49.62
2022-08-18T00:40:57.075Z,50.03
2022-08-18T00:43:35.951Z,50.16
2022-08-18T00:46:11.664Z,50.16
2022-08-18T00:48:48.838Z,50.25
2022-08-18T00:51:46.806Z,50.71
2022-08-18T00:54:26.477Z,50.74
2022-08-18T00:57:06.650Z,50.74
2022-08-18T00:59:50.063Z,50.47
2022-08-18T01:02:31.814Z,50.80
2022-08-18T01:05:09.119Z,50.97
2022-08-18T01:07:46.602Z,50.92
2022-08-18T01:10:22.549Z,51.13
2022-08-18T01:12:57.774Z,51.57
2022-08-18T01:15:30.529Z,51.26
2022-08-18T01:18:29.848Z,51.83
2022-08-18T01:21:33.785Z,51.92
2022-08-18T01:24:08.968Z,51.62
2022-08-18T01:26:46.457Z,51.89
2022-08-18T01:29:19.754Z,52.17
2022-08-18T01:31:57.169Z,52.08
2022-08-18T01:34:31.548Z,52.40
2022-08-18T01:37:06.541Z,52.76
2022-08-18T01:41:21.240Z,52.80
2022-08-18T01:42:33.583Z,52.64
2022-08-18T01:45:08.372Z,52.72
2022-08-18T01:47:47.110Z,52.84
2022-08-18T01:50:20.143Z,53.02
2022-08-18T01:52:53.606Z,53.22
2022-08-18T01:55:28.545Z,53.34
2022-08-18T01:58:01.589Z,53.47
2022-08-18T02:00:33.806Z,53.65
2022-08-18T02:03:11.375Z,53.39
2022-08-18T02:05:49.722Z,53.53
2022-08-18T02:08:22.135Z,53.97
2022-08-18T02:11:03.529Z,53.24
2022-08-18T02:13:35.561Z,53.72
2022-08-18T02:16:07.889Z,53.77
2022-08-18T02:18:48.280Z,53.68
2022-08-18T02:21:20.778Z,53.84
2022-08-18T02:23:54.423Z,53.56
2022-08-18T02:26:26.066Z,53.85
2022-08-18T02:28:57.706Z,53.94
2022-08-18T02:31:29.342Z,53.68
2022-08-18T02:34:01.096Z,53.84
2022-08-18T02:36:32.687Z,53.67
2022-08-18T02:39:04.402Z,53.80
2022-08-18T02:41:36.632Z,53.82
2022-08-18T02:44:09.342Z,54.18
2022-08-18T02:46:41.004Z,54.08
2022-08-18T02:49:12.787Z,54.32
2022-08-18T02:51:44.419Z,53.98
2022-08-18T02:54:16.039Z,54.62
2022-08-18T02:56:47.940Z,54.25
2022-08-18T02:59:26.424Z,54.66
2022-08-18T03:01:58.646Z,54.65
2022-08-18T03:04:31.247Z,54.82
2022-08-18T03:07:05.359Z,54.96
2022-08-18T03:09:37.494Z,55.20
2022-08-18T03:12:09.733Z,55.03
2022-08-18T03:14:44.194Z,55.29
2022-08-18T03:17:15.873Z,55.51
2022-08-18T03:19:47.981Z,55.36
2022-08-18T03:22:28.300Z,55.57
2022-08-18T03:25:05.623Z,55.65
2022-08-18T03:27:37.227Z,55.61
2022-08-18T03:30:11.264Z,55.31
2022-08-18T03:32:45.918Z,55.59
2022-08-18T03:35:17.823Z,55.73
2022-08-18T03:37:50.695Z,56.14
2022-08-18T03:40:22.404Z,56.05
2022-08-18T03:42:54.275Z,55.97
2022-08-18T03:45:28.567Z,56.32
2022-08-18T03:48:01.224Z,56.30
2022-08-18T03:50:32.946Z,56.22
2022-08-18T03:53:07.409Z,56.50
2022-08-18T03:55:42.137Z,56.29
2022-08-18T03:58:15.509Z,56.46
2022-08-18T04:00:47.389Z,56.59
2022-08-18T04:03:19.538Z,56.51
2022-08-18T04:05:51.122Z,56.41
2022-08-18T04:08:22.770Z,56.46
2022-08-18T04:11:05.650Z,56.24
2022-08-18T04:13:39.339Z,56.34
2022-08-18T04:16:11.648Z,56.48
2022-08-18T04:18:43.548Z,56.50
2022-08-18T04:21:15.141Z,56.73
2022-08-18T04:23:46.797Z,56.89
2022-08-18T04:26:20.013Z,57.05
2022-08-18T04:28:51.688Z,56.73
2022-08-18T04:31:24.798Z,56.42
2022-08-18T04:34:03.703Z,55.89
2022-08-18T04:36:36.380Z,56.00
2022-08-18T04:39:10.079Z,55.48
2022-08-18T04:41:47.510Z,55.03
2022-08-18T04:44:21.736Z,54.97
2022-08-18T04:46:54.011Z,54.83
2022-08-18T04:49:26.347Z,54.36
2022-08-18T04:52:39.314Z,53.97
2022-08-18T04:55:10.357Z,53.54
2022-08-18T04:57:42.841Z,53.21
2022-08-18T05:00:14.746Z,52.89
2022-08-18T05:02:46.571Z,52.15
2022-08-18T05:05:18.346Z,51.94
2022-08-18T05:07:49.931Z,51.52
2022-08-18T05:10:21.537Z,51.43
2022-08-18T05:12:53.110Z,50.95
2022-08-18T05:15:24.800Z,50.67
2022-08-18T05:17:56.686Z,50.51
2022-08-18T05:20:33.390Z,50.07
2022-08-18T05:23:07.272Z,49.79
2022-08-18T05:25:40.084Z,49.66
2022-08-18T05:28:13.471Z,48.98
2022-08-18T05:30:45.183Z,48.93
2022-08-18T05:33:17.230Z,48.56
2022-08-18T05:35:55.016Z,47.85
2022-08-18T05:38:42.432Z,47.15
2022-08-18T05:41:28.091Z,46.56
2022-08-18T05:44:01.474Z,46.22
2022-08-18T05:46:50.095Z,46.32
2022-08-18T05:49:24.405Z,46.44
2022-08-18T05:52:01.046Z,46.37
2022-08-18T05:55:03.786Z,46.76
2022-08-18T05:57:43.454Z,46.62
2022-08-18T06:00:21.221Z,46.75
2022-08-18T06:03:45.505Z,46.87
2022-08-18T06:06:24.140Z,47.07
2022-08-18T06:09:18.343Z,47.10
2022-08-18T06:11:50.470Z,47.36
2022-08-18T06:14:22.639Z,47.20
2022-08-18T06:17:21.666Z,47.12
2022-08-18T06:20:17.524Z,47.87
2022-08-18T06:23:06.270Z,47.54
2022-08-18T06:25:58.015Z,47.42
2022-08-18T06:29:14.783Z,47.49
2022-08-18T06:32:05.385Z,47.84
2022-08-18T06:35:04.942Z,48.03
2022-08-18T06:38:03.703Z,47.99
2022-08-18T06:40:35.542Z,48.32
2022-08-18T06:43:11.894Z,48.09
2022-08-18T06:45:48.530Z,48.06
2022-08-18T06:48:50.905Z,48.07
2022-08-18T06:51:27.594Z,48.29
2022-08-18T06:54:24.561Z,48.33
2022-08-18T06:56:57.774Z,47.80
2022-08-18T06:59:34.704Z,47.96
2022-08-18T07:02:21.285Z,47.68
2022-08-18T07:05:05.894Z,47.62
2022-08-18T07:07:40.875Z,47.25
2022-08-18T07:10:15.983Z,46.97
2022-08-18T07:12:47.573Z,47.37
2022-08-18T07:15:24.419Z,47.56
2022-08-18T07:18:05.329Z,47.26
2022-08-18T07:20:54.133Z,47.22
2022-08-18T07:23:34.724Z,47.31
2022-08-18T07:26:12.055Z,47.15
2022-08-18T07:28:52.974Z,47.26
2022-08-18T07:31:53.042Z,47.47
2022-08-18T07:34:37.294Z,47.71
2022-08-18T07:37:28.607Z,47.54
2022-08-18T07:40:27.490Z,47.53
2022-08-18T07:43:03.426Z,47.76
2022-08-18T07:45:42.827Z,47.83
2022-08-18T07:48:38.170Z,47.58
2022-08-18T07:51:37.549Z,47.09
2022-08-18T07:54:48.953Z,46.83
2022-08-18T07:57:42.911Z,46.84
2022-08-18T08:00:55.318Z,46.46
2022-08-18T08:03:50.317Z,46.28
2022-08-18T08:07:12.886Z,46.37
2022-08-18T08:09:58.403Z,45.74
2022-08-18T08:13:11.125Z,45.35
2022-08-18T08:16:16.740Z,44.07
2022-08-18T08:19:16.476Z,43.23
2022-08-18T08:22:04.695Z,42.20
2022-08-18T08:24:47.969Z,42.27
2022-08-18T08:27:56.696Z,41.42
2022-08-18T08:30:31.974Z,41.10
2022-08-18T08:33:18.071Z,41.05
2022-08-18T08:35:58.804Z,39.61
2022-08-18T08:38:47.097Z,38.48
2022-08-18T08:41:26.661Z,37.57
2022-08-18T08:44:24.817Z,36.46
2022-08-18T08:47:02.583Z,36.06
2022-08-18T08:50:00.538Z,36.17
2022-08-18T08:52:44.699Z,35.52
2022-08-18T08:55:25.412Z,34.14
2022-08-18T08:58:15.508Z,34.81
2022-08-18T09:00:49.725Z,35.15
2022-08-18T09:04:00.883Z,34.28
2022-08-18T09:06:32.522Z,34.49
2022-08-18T09:09:19.075Z,33.82
2022-08-18T09:12:31.994Z,32.77
2022-08-18T09:15:18.307Z,32.29
2022-08-18T09:17:58.863Z,32.47
2022-08-18T09:21:16.033Z,32.82
2022-08-18T09:23:53.179Z,32.39
2022-08-18T09:26:42.568Z,31.55
2022-08-18T09:29:37.153Z,31.45
2022-08-18T09:32:18.695Z,31.98
2022-08-18T09:35:23.138Z,31.09
2022-08-18T09:38:30.325Z,31.39
2022-08-18T09:41:35.202Z,30.55
2022-08-18T09:44:21.517Z,30.29
2022-08-18T09:47:07.829Z,29.88
2022-08-18T09:49:47.969Z,30.83
2022-08-18T09:52:25.431Z,30.81
2022-08-18T09:54:57.429Z,30.33
2022-08-18T09:57:42.101Z,29.83
2022-08-18T10:00:33.509Z,30.24
2022-08-18T10:03:13.923Z,30.06
2022-08-18T10:06:07.098Z,29.34
2022-08-18T10:09:01.929Z,29.90
2022-08-18T10:11:58.297Z,29.77
2022-08-18T10:14:37.039Z,29.92
2022-08-18T10:17:36.333Z,29.77
2022-08-18T10:20:23.900Z,30.50
2022-08-18T10:22:58.203Z,29.68
2022-08-18T10:25:33.875Z,29.70
2022-08-18T10:28:10.137Z,29.57
2022-08-18T10:30:57.302Z,29.83
2022-08-18T10:34:17.226Z,30.93
2022-08-18T10:36:54.940Z,30.96
2022-08-18T10:39:41.220Z,30.79
2022-08-18T10:42:31.525Z,30.60
2022-08-18T10:45:06.955Z,30.57
2022-08-18T10:47:38.688Z,30.96
2022-08-18T10:50:26.748Z,30.33
2022-08-18T10:53:17.006Z,30.45
2022-08-18T10:56:26.514Z,30.75
2022-08-18T10:59:19.487Z,30.06
2022-08-18T11:02:20.304Z,30.02
2022-08-18T11:04:58.985Z,29.87
2022-08-18T11:07:34.392Z,29.28
2022-08-18T11:10:57.489Z,29.30
2022-08-18T11:13:49.977Z,29.08
2022-08-18T11:16:42.922Z,29.25
2022-08-18T11:19:22.684Z,28.77
2022-08-18T11:21:54.836Z,28.56
2022-08-18T11:24:31.577Z,28.55
2022-08-18T11:27:22.689Z,28.99
2022-08-18T11:30:01.041Z,28.66
2022-08-18T11:32:44.226Z,28.66
2022-08-18T11:35:32.170Z,28.17
2022-08-18T11:38:13.579Z,28.67
2022-08-18T11:41:19.927Z,28.67
2022-08-18T11:43:57.946Z,29.39
2022-08-18T11:46:38.876Z,29.28
2022-08-18T11:49:30.079Z,29.07
2022-08-18T11:52:32.890Z,28.75
2022-08-18T11:55:24.552Z,28.57
2022-08-18T11:57:59.549Z,28.94
2022-08-18T12:00:42.722Z,28.07
2022-08-18T12:03:41.242Z,28.14
2022-08-18T12:06:27.900Z,29.24
2022-08-18T12:09:07.511Z,29.21
2022-08-18T12:11:53.760Z,29.74
2022-08-18T12:14:35.347Z,29.38
2022-08-18T12:17:14.049Z,30.10
2022-08-18T12:19:48.253Z,30.04
2022-08-18T12:22:28.202Z,30.35
2022-08-18T12:24:59.918Z,30.19
2022-08-18T12:27:33.758Z,30.18
2022-08-18T12:30:07.456Z,30.33
2022-08-18T12:32:50.513Z,29.94
2022-08-18T12:35:22.741Z,30.77
2022-08-18T12:38:03.158Z,30.62
2022-08-18T12:40:43.127Z,30.66
2022-08-18T12:43:14.791Z,29.97
2022-08-18T12:45:46.661Z,29.19
2022-08-18T12:48:18.753Z,29.43
2022-08-18T12:50:58.598Z,29.58
2022-08-18T12:53:38.263Z,29.48
2022-08-18T12:56:30.401Z,28.72
2022-08-18T12:59:05.218Z,29.22
2022-08-18T13:01:41.568Z,29.20
2022-08-18T13:04:15.688Z,29.04
2022-08-18T13:06:59.243Z,28.59
2022-08-18T13:09:53.576Z,28.16
2022-08-18T13:12:26.179Z,28.33
2022-08-18T13:14:59.206Z,28.96
2022-08-18T13:17:33.674Z,28.85
2022-08-18T13:20:10.711Z,28.98
2022-08-18T13:22:45.639Z,28.44
2022-08-18T13:25:32.748Z,28.48
2022-08-18T13:28:09.550Z,28.04
2022-08-18T13:30:46.263Z,27.84
2022-08-18T13:33:53.614Z,27.67
2022-08-18T13:36:12.615Z,27.34
2022-08-18T13:38:44.352Z,27.99
2022-08-18T13:41:16.793Z,27.62
2022-08-18T13:43:48.610Z,27.79
2022-08-18T13:46:24.077Z,27.30
2022-08-18T13:49:02.288Z,27.15
2022-08-18T13:51:35.489Z,27.73
2022-08-18T13:54:29.700Z,27.66
2022-08-18T13:57:04.382Z,28.05
2022-08-18T13:59:35.971Z,27.39
2022-08-18T14:02:10.585Z,27.58
2022-08-18T14:04:42.233Z,27.75
2022-08-18T14:07:19.320Z,27.17
2022-08-18T14:10:04.999Z,26.89
2022-08-18T14:12:37.862Z,26.87
2022-08-18T14:15:16.576Z,27.38
2022-08-18T14:17:48.362Z,27.26
2022-08-18T14:20:38.959Z,27.63
2022-08-18T14:23:38.445Z,27.04
2022-08-18T14:26:34.211Z,27.21
2022-08-18T14:29:05.827Z,27.75
2022-08-18T14:31:37.580Z,27.74
2022-08-18T14:34:09.737Z,27.67
2022-08-18T14:36:42.410Z,27.66
2022-08-18T14:39:15.668Z,27.62
2022-08-18T14:41:54.653Z,26.63
2022-08-18T14:44:31.923Z,27.13
2022-08-18T14:47:04.025Z,26.95
2022-08-18T14:49:36.178Z,26.50
2022-08-18T14:52:19.593Z,27.28
2022-08-18T14:54:51.413Z,26.61
2022-08-18T14:57:26.470Z,26.84
2022-08-18T14:59:58.669Z,26.74
2022-08-18T15:02:30.566Z,27.38
2022-08-18T15:05:02.440Z,27.09
2022-08-18T15:07:52.461Z,27.04
2022-08-18T15:10:27.934Z,27.27
2022-08-18T15:13:02.925Z,26.75
2022-08-18T15:15:50.987Z,27.02
2022-08-18T15:18:23.975Z,27.58
2022-08-18T15:21:19.607Z,27.28
2022-08-18T15:24:26.535Z,27.60
2022-08-18T15:27:05.678Z,27.50
2022-08-18T15:29:41.486Z,27.52
2022-08-18T15:32:17.533Z,27.20
2022-08-18T15:34:51.412Z,27.57
2022-08-18T15:37:24.284Z,27.25
2022-08-18T15:40:21.875Z,27.42
2022-08-18T15:43:10.528Z,27.37
2022-08-18T15:45:58.007Z,27.66
2022-08-18T15:48:30.074Z,27.56
2022-08-18T15:51:11.501Z,27.74
2022-08-18T15:53:45.750Z,27.83
2022-08-18T15:56:21.075Z,28.17
2022-08-18T15:58:52.867Z,28.31
2022-08-18T16:01:30.223Z,28.15
2022-08-18T16:04:05.741Z,27.73
2022-08-18T16:06:46.331Z,28.29
2022-08-18T16:09:17.933Z,27.93
2022-08-18T16:11:50.001Z,28.12
2022-08-18T16:14:21.580Z,28.36
2022-08-18T16:16:55.237Z,28.35
2022-08-18T16:19:26.719Z,28.04
2022-08-18T16:22:06.287Z,28.02
2022-08-18T16:24:37.947Z,27.85
2022-08-18T16:27:09.595Z,28.54
2022-08-18T16:29:41.254Z,28.22
2022-08-18T16:32:16.173Z,28.64
2022-08-18T16:34:49.067Z,28.79
2022-08-18T16:37:20.694Z,28.72
2022-08-18T16:39:52.852Z,28.81
2022-08-18T16:42:24.825Z,28.92
2022-08-18T16:44:56.397Z,29.60
2022-08-18T16:47:28.336Z,29.12
2022-08-18T16:50:00.181Z,29.26
2022-08-18T16:52:33.538Z,29.63
2022-08-18T16:55:07.660Z,29.77
2022-08-18T16:58:02.296Z,29.48
2022-08-18T17:00:54.852Z,29.46
2022-08-18T17:03:45.223Z,29.63
2022-08-18T17:06:18.699Z,29.76
2022-08-18T17:08:50.421Z,29.78
2022-08-18T17:11:23.663Z,29.86
2022-08-18T17:13:59.524Z,29.70
2022-08-18T17:16:31.212Z,30.30
2022-08-18T17:19:05.927Z,30.04
2022-08-18T17:21:38.006Z,30.04
2022-08-18T17:24:11.345Z,29.96
2022-08-18T17:26:59.716Z,30.36
2022-08-18T17:29:54.075Z,30.35
2022-08-18T17:32:44.146Z,30.31
2022-08-18T17:35:29.073Z,30.28
2022-08-18T17:38:08.804Z,30.56
2022-08-18T17:40:46.423Z,30.56
2022-08-18T17:43:27.893Z,30.47
2022-08-18T17:46:18.509Z,30.57
2022-08-18T17:48:57.790Z,30.57
2022-08-18T17:51:35.376Z,30.89
2022-08-18T17:54:39.437Z,30.88
2022-08-18T17:57:23.804Z,31.27
2022-08-18T18:00:09.677Z,31.16
2022-08-18T18:02:45.514Z,31.29
2022-08-18T18:05:20.133Z,31.59
2022-08-18T18:07:51.907Z,31.68
2022-08-18T18:10:30.102Z,31.90
2022-08-18T18:13:32.414Z,31.78
2022-08-18T18:16:19.871Z,31.82
2022-08-18T18:19:05.816Z,32.08
2022-08-18T18:22:00.970Z,32.13
2022-08-18T18:24:32.693Z,32.06
2022-08-18T18:27:24.981Z,32.14
2022-08-18T18:30:07.609Z,32.36
2022-08-18T18:32:59.090Z,32.41
2022-08-18T18:35:54.947Z,32.67
2022-08-18T18:38:31.360Z,32.62
2022-08-18T18:41:20.451Z,32.77
2022-08-18T18:44:06.238Z,32.59
2022-08-18T18:47:01.204Z,32.97
2022-08-18T18:49:39.980Z,32.84
2022-08-18T18:52:25.460Z,32.81
2022-08-18T18:55:19.315Z,32.97
2022-08-18T18:58:15.944Z,32.83
2022-08-18T19:00:53.833Z,32.97
2022-08-18T19:03:29.101Z,33.03
2022-08-18T19:06:03.634Z,33.18
2022-08-18T19:08:35.915Z,33.04
2022-08-18T19:11:26.701Z,33.29
2022-08-18T19:14:07.576Z,33.62
2022-08-18T19:16:59.724Z,33.53
2022-08-18T19:19:39.372Z,33.66
2022-08-18T19:22:19.241Z,33.83
2022-08-18T19:25:07.323Z,34.02
2022-08-18T19:28:02.609Z,34.39
2022-08-18T19:30:40.622Z,34.40
2022-08-18T19:33:24.786Z,34.64
2022-08-18T19:36:08.334Z,34.35
2022-08-18T19:39:11.287Z,34.44
2022-08-18T19:41:52.813Z,34.75
2022-08-18T19:44:29.219Z,34.84
2022-08-18T19:47:28.003Z,35.21
2022-08-18T19:49:59.897Z,35.26
2022-08-18T19:52:46.035Z,35.38
2022-08-18T19:55:40.499Z,35.77
2022-08-18T19:59:04.811Z,35.82
2022-08-18T20:01:52.896Z,36.29
2022-08-18T20:04:54.130Z,36.65
2022-08-18T20:07:31.492Z,36.89
2022-08-18T20:10:30.941Z,36.29
2022-08-18T20:13:32.608Z,36.43
2022-08-18T20:16:12.915Z,36.66
2022-08-18T20:18:49.025Z,36.87
2022-08-18T20:21:20.537Z,36.59
2022-08-18T20:24:05.026Z,36.57
2022-08-18T20:26:39.139Z,36.07
2022-08-18T20:29:18.993Z,36.73
2022-08-18T20:32:01.735Z,36.63
2022-08-18T20:34:35.442Z,36.89
2022-08-18T20:37:08.351Z,37.76
2022-08-18T20:39:46.898Z,37.58
2022-08-18T20:42:42.288Z,37.34
2022-08-18T20:45:28.756Z,37.71
2022-08-18T20:48:12.548Z,38.05
2022-08-18T20:50:54.218Z,38.47
2022-08-18T20:53:55.324Z,38.38
2022-08-18T20:56:37.438Z,38.81
2022-08-18T20:59:20.256Z,38.87
2022-08-18T21:01:58.275Z,38.91
2022-08-18T21:04:59.118Z,39.60
2022-08-18T21:07:38.941Z,40.42
2022-08-18T21:10:19.892Z,40.16
2022-08-18T21:12:57.149Z,40.70
2022-08-18T21:15:35.543Z,41.21
2022-08-18T21:18:24.494Z,41.28
2022-08-18T21:20:58.164Z,41.65
2022-08-18T21:23:34.513Z,41.55
2022-08-18T21:26:15.768Z,41.96
2022-08-18T21:28:51.893Z,42.21
2022-08-18T21:31:45.373Z,42.73
2022-08-18T21:34:35.602Z,43.52
2022-08-18T21:37:10.456Z,43.34
2022-08-18T21:40:01.256Z,44.09
2022-08-18T21:42:39.213Z,43.99
2022-08-18T21:45:23.221Z,44.18
2022-08-18T21:47:58.180Z,44.34
2022-08-18T21:50:34.816Z,45.03
2022-08-18T21:53:12.444Z,44.94
2022-08-18T21:55:47.327Z,45.65
2022-08-18T21:58:32.666Z,45.94
2022-08-18T22:01:11.932Z,45.89
2022-08-18T22:03:59.478Z,46.24
2022-08-18T22:06:40.587Z,46.24
2022-08-18T22:09:30.298Z,46.32
2022-08-18T22:12:52.047Z,47.17
2022-08-18T22:15:40.912Z,46.91
2022-08-18T22:18:18.306Z,47.10
2022-08-18T22:20:52.954Z,47.15
2022-08-18T22:24:06.185Z,47.95
2022-08-18T22:26:38.599Z,47.48
2022-08-18T22:29:10.130Z,47.81
2022-08-18T22:31:48.288Z,47.89
2022-08-18T22:34:28.198Z,48.17
2022-08-18T22:37:07.774Z,48.36
2022-08-18T22:39:46.127Z,48.43
2022-08-18T22:42:20.612Z,48.34
2022-08-18T22:44:53.205Z,48.62
2022-08-18T22:47:25.044Z,48.95
2022-08-18T22:49:57.355Z,48.90
2022-08-18T22:52:36.757Z,49.37
2022-08-18T22:55:10.783Z,50.19
2022-08-18T22:57:42.992Z,50.28
2022-08-18T23:00:19.278Z,50.44
2022-08-18T23:02:50.902Z,50.94
2022-08-18T23:05:23.276Z,50.79
2022-08-18T23:07:54.982Z,51.15
2022-08-18T23:10:26.694Z,51.21
2022-08-18T23:13:02.277Z,51.25
2022-08-18T23:15:43.634Z,51.37
2022-08-18T23:18:19.767Z,51.62
2022-08-18T23:20:59.057Z,52.78
2022-08-18T23:23:31.901Z,52.70
2022-08-18T23:26:03.589Z,52.65
2022-08-18T23:28:35.162Z,53.12
2022-08-18T23:31:06.830Z,54.01
2022-08-18T23:33:38.422Z,53.97
2022-08-18T23:36:10.587Z,54.54
2022-08-18T23:38:42.517Z,55.34
2022-08-18T23:41:16.276Z,55.27
2022-08-18T23:43:49.101Z,55.58
2022-08-18T23:46:28.739Z,55.54
2022-08-18T23:49:03.686Z,56.34
2022-08-18T23:51:49.062Z,56.64
2022-08-18T23:54:23.653Z,57.20
2022-08-18T23:56:55.405Z,56.97
2022-08-18T23:59:28.071Z,57.44
